Time;durP1;ratioP1;P1;durP2;ratioP2;P2;SDS_P1;SDS_P2;PMS_P1;PMS_P2;Temp;Humidity;BMP_temperature;BMP_pressure;BME280_temperature;BME280_humidity;BME280_pressure;Samples;Min_cycle;Max_cycle;Signal;HPM_P1;HPM_P2
2022/02/04 00:07:11;;;;;;;3.93;1.87;;;6.10;71.40;;;;;;5034647;28;20051;-86
2022/02/04 00:23:26;;;;;;;5.27;2.43;;;5.90;71.70;;;;;;5036574;28;20484;-86
2022/02/04 00:28:49;;;;;;;2.40;1.27;;;6.00;71.90;;;;;;5032409;28;20148;-85
2022/02/04 00:34:07;;;;;;;1.90;1.07;;;5.80;71.50;;;;;;5034284;28;20044;-86
2022/02/04 00:39:07;;;;;;;3.60;1.60;;;5.70;71.70;;;;;;5034457;28;20033;-85
2022/02/04 00:41:36;;;;;;;3.70;1.90;;;5.80;71.90;;;;;;5033086;28;20464;-85
2022/02/04 00:44:04;;;;;;;4.63;2.20;;;5.80;71.70;;;;;;5033068;28;20033;-86
2022/02/04 00:46:40;;;;;;;3.77;1.40;;;5.70;71.60;;;;;;5030455;28;20112;-86
2022/02/04 00:49:13;;;;;;;2.60;1.57;;;5.80;71.60;;;;;;5018833;28;20492;-86
2022/02/04 00:56:39;;;;;;;8.80;6.00;;;5.70;71.50;;;;;;5031498;28;20112;-86
2022/02/04 01:26:18;;;;;;;10.47;7.60;;;6.00;72.60;;;;;;5033072;28;20431;-86
2022/02/04 01:28:46;;;;;;;9.33;7.03;;;6.00;73.00;;;;;;5027694;28;20063;-86
2022/02/04 01:31:15;;;;;;;10.37;5.70;;;5.90;73.20;;;;;;5029141;28;20025;-86
2022/02/04 01:33:41;;;;;;;8.60;6.50;;;5.90;73.00;;;;;;5022316;28;20026;-86
2022/02/04 01:36:07;;;;;;;7.60;5.63;;;5.90;72.90;;;;;;5026191;28;20025;-86
2022/02/04 01:38:33;;;;;;;10.63;7.97;;;5.80;73.40;;;;;;5030071;28;20032;-85
2022/02/04 01:41:00;;;;;;;13.33;9.13;;;5.90;73.20;;;;;;5030774;28;20504;-86
2022/02/04 01:43:26;;;;;;;11.93;9.07;;;5.90;73.10;;;;;;5031332;28;20040;-86
2022/02/04 01:45:53;;;;;;;12.20;9.23;;;5.90;73.50;;;;;;5024559;28;20562;-85
2022/02/04 01:48:20;;;;;;;16.40;9.73;;;5.90;73.60;;;;;;5030063;28;20045;-86
2022/02/04 01:50:47;;;;;;;31.70;10.63;;;6.00;73.60;;;;;;5022492;28;20053;-86
2022/02/04 01:53:16;;;;;;;13.67;9.13;;;5.90;73.80;;;;;;5028444;28;20032;-86
2022/02/04 01:55:43;;;;;;;10.40;7.37;;;5.90;73.80;;;;;;5023326;28;20045;-86
2022/02/04 01:58:10;;;;;;;9.13;6.53;;;6.00;73.90;;;;;;5025901;28;20485;-86
2022/02/04 02:00:36;;;;;;;10.37;8.17;;;6.00;73.90;;;;;;5026258;28;20032;-86
2022/02/04 02:03:03;;;;;;;9.50;6.77;;;5.90;73.80;;;;;;5024662;28;20034;-86
2022/02/04 02:05:28;;;;;;;8.57;6.87;;;5.90;74.10;;;;;;5028529;28;20029;-86
2022/02/04 02:07:54;;;;;;;10.60;8.23;;;5.90;74.20;;;;;;5020966;28;20886;-86
2022/02/04 02:10:20;;;;;;;13.13;9.93;;;5.90;73.80;;;;;;5021793;28;20141;-86
2022/02/04 02:59:34;;;;;;;12.67;6.90;;;5.60;74.10;;;;;;5032142;28;20021;-83
2022/02/04 03:02:00;;;;;;;8.33;5.77;;;5.60;74.40;;;;;;5029628;28;20025;-84
2022/02/04 03:04:26;;;;;;;7.73;5.53;;;5.60;74.10;;;;;;5030631;28;20068;-83
2022/02/04 03:06:51;;;;;;;9.33;6.37;;;5.70;74.30;;;;;;5021266;28;20435;-83
2022/02/04 03:09:17;;;;;;;7.77;5.80;;;5.80;74.60;;;;;;5033341;28;20071;-84
2022/02/04 03:11:43;;;;;;;7.43;6.03;;;5.80;74.10;;;;;;5025054;28;20030;-84
2022/02/04 03:14:09;;;;;;;9.70;7.87;;;6.00;74.10;;;;;;5022295;28;20110;-84
2022/02/04 03:16:36;;;;;;;7.67;5.80;;;6.10;73.70;;;;;;5030174;28;20075;-84
2022/02/04 03:19:03;;;;;;;6.53;5.40;;;6.00;73.20;;;;;;5026594;28;20120;-84
2022/02/04 03:21:35;;;;;;;7.83;6.00;;;6.00;73.40;;;;;;5027322;28;20033;-84
2022/02/04 03:24:07;;;;;;;7.57;5.57;;;6.00;73.30;;;;;;5020604;28;20062;-84
2022/02/04 03:26:49;;;;;;;7.38;5.20;;;6.10;73.50;;;;;;5023380;28;20384;-84
2022/02/04 03:29:22;;;;;;;7.38;4.95;;;6.10;73.40;;;;;;5033689;28;20036;-86
2022/02/04 03:31:52;;;;;;;8.00;4.88;;;6.00;73.20;;;;;;5028936;28;20030;-84
2022/02/04 03:34:18;;;;;;;7.90;5.50;;;6.00;73.30;;;;;;5032106;28;20041;-83
2022/02/04 03:36:44;;;;;;;5.60;4.30;;;6.00;73.20;;;;;;5032815;28;20178;-84
2022/02/04 03:39:10;;;;;;;5.67;4.57;;;5.90;73.20;;;;;;5030031;28;20135;-84
2022/02/04 03:41:35;;;;;;;5.97;4.60;;;5.90;73.20;;;;;;5032450;28;20120;-86
2022/02/04 03:44:01;;;;;;;6.17;4.87;;;5.90;73.10;;;;;;5028443;28;20057;-84
2022/02/04 03:46:27;;;;;;;8.90;5.30;;;5.80;73.10;;;;;;5030188;28;20034;-84
2022/02/04 03:48:55;;;;;;;6.67;4.90;;;5.80;73.00;;;;;;5024840;28;20046;-84
2022/02/04 03:51:21;;;;;;;12.17;8.30;;;5.80;73.10;;;;;;5029367;28;20473;-85
2022/02/04 03:53:46;;;;;;;11.67;7.83;;;5.80;73.10;;;;;;5024954;28;20492;-85
2022/02/04 03:56:12;;;;;;;10.47;8.10;;;5.70;73.10;;;;;;5029431;28;20026;-85
2022/02/04 03:58:38;;;;;;;34.67;12.60;;;5.70;73.20;;;;;;5032725;28;20037;-85
2022/02/04 04:01:05;;;;;;;46.30;14.37;;;5.70;73.40;;;;;;5024470;28;20369;-85
2022/02/04 04:03:31;;;;;;;37.13;13.63;;;5.60;73.40;;;;;;5029709;28;20116;-85
2022/02/04 04:05:56;;;;;;;24.73;14.20;;;5.50;73.70;;;;;;5032746;28;20091;-84
2022/02/04 04:08:22;;;;;;;30.47;13.47;;;5.50;74.20;;;;;;5030788;28;20033;-85
2022/02/04 04:10:50;;;;;;;13.67;10.33;;;5.50;74.20;;;;;;5025009;28;20029;-85
2022/02/04 04:13:16;;;;;;;33.30;11.43;;;5.50;74.40;;;;;;5024451;28;20464;-85
2022/02/04 04:15:42;;;;;;;50.27;13.33;;;5.50;74.30;;;;;;5024947;28;20025;-85
2022/02/04 04:18:12;;;;;;;29.47;12.53;;;5.50;74.40;;;;;;5030494;28;20025;-85
2022/02/04 04:20:40;;;;;;;49.03;12.87;;;5.60;74.40;;;;;;5026540;28;20030;-85
2022/02/04 04:23:05;;;;;;;27.63;12.80;;;5.50;74.30;;;;;;5030841;28;20037;-85
2022/02/04 04:25:32;;;;;;;62.83;13.07;;;5.50;74.40;;;;;;5030101;28;20039;-85
2022/02/04 04:27:58;;;;;;;26.90;13.50;;;5.50;74.70;;;;;;5032470;28;20033;-85
2022/02/04 04:30:25;;;;;;;13.67;8.43;;;5.50;74.80;;;;;;5024772;28;20030;-85
2022/02/04 04:32:55;;;;;;;24.13;10.97;;;5.50;74.70;;;;;;5026891;28;20029;-85
2022/02/04 04:35:25;;;;;;;19.73;11.27;;;5.50;74.70;;;;;;5020348;28;20464;-85
2022/02/04 04:46:01;;;;;;;32.37;12.60;;;5.40;74.50;;;;;;5019265;28;20384;-85
2022/02/04 05:29:24;;;;;;;49.93;10.17;;;5.10;75.20;;;;;;5029781;28;20029;-84
2022/02/04 05:31:49;;;;;;;58.57;11.03;;;5.20;75.20;;;;;;5025900;28;20031;-84
2022/02/04 05:34:18;;;;;;;109.17;14.40;;;5.20;75.20;;;;;;5023519;28;20117;-84
2022/02/04 05:36:47;;;;;;;57.83;11.37;;;5.20;75.30;;;;;;5031949;28;20519;-84
2022/02/04 05:39:15;;;;;;;68.93;10.80;;;5.20;75.10;;;;;;5025380;28;20029;-84
2022/02/04 05:41:46;;;;;;;46.07;10.10;;;5.20;75.40;;;;;;5027368;28;20526;-85
2022/02/04 05:44:13;;;;;;;44.60;9.10;;;5.30;75.90;;;;;;5032776;28;20033;-85
2022/02/04 05:46:50;;;;;;;42.63;9.57;;;5.50;75.70;;;;;;5030808;28;20396;-85
2022/02/04 05:49:18;;;;;;;57.83;10.90;;;5.50;74.90;;;;;;5021300;28;20026;-84
2022/02/04 05:57:01;;;;;;;24.63;11.27;;;5.30;75.10;;;;;;5028643;28;20026;-84
2022/02/04 05:59:49;;;;;;;31.83;9.90;;;5.30;74.70;;;;;;5026807;28;20376;-84
2022/02/04 06:02:25;;;;;;;12.50;8.00;;;5.20;74.80;;;;;;5032844;28;20373;-84
2022/02/04 06:05:02;;;;;;;21.50;9.17;;;5.20;74.70;;;;;;5029994;28;20078;-85
2022/02/04 06:07:38;;;;;;;26.67;11.30;;;5.20;74.70;;;;;;5033163;28;20029;-84
2022/02/04 06:13:14;;;;;;;39.23;9.97;;;5.20;74.70;;;;;;5035371;28;20037;-84
2022/02/04 06:23:49;;;;;;;44.13;10.13;;;5.20;75.30;;;;;;5038767;28;20076;-85
2022/02/04 06:26:15;;;;;;;24.83;12.33;;;5.30;75.00;;;;;;5036854;28;20025;-85
2022/02/04 06:28:41;;;;;;;27.60;13.03;;;5.30;74.60;;;;;;5021998;28;20037;-85
2022/02/04 06:31:08;;;;;;;28.30;13.53;;;5.40;74.80;;;;;;5020678;28;20033;-85
2022/02/04 06:33:35;;;;;;;17.73;10.27;;;5.40;74.60;;;;;;5030494;28;20034;-85
2022/02/04 06:36:02;;;;;;;19.07;10.43;;;5.40;74.30;;;;;;5031234;28;20021;-85
2022/02/04 06:38:27;;;;;;;19.33;11.63;;;5.30;74.50;;;;;;5025391;28;20371;-85
2022/02/04 06:40:54;;;;;;;16.43;11.00;;;5.20;74.50;;;;;;5035643;28;20065;-85
2022/02/04 06:43:20;;;;;;;19.40;10.37;;;5.20;74.40;;;;;;5037178;28;20587;-85
2022/02/04 06:45:46;;;;;;;25.47;10.13;;;5.20;74.60;;;;;;5035912;28;20067;-85
2022/02/04 06:48:11;;;;;;;60.13;11.73;;;5.20;74.60;;;;;;5036043;28;20068;-85
2022/02/04 06:50:37;;;;;;;28.07;11.73;;;5.10;74.30;;;;;;5029747;28;20080;-85
2022/02/04 06:53:04;;;;;;;57.63;11.47;;;5.10;74.30;;;;;;5034714;28;20392;-85
2022/02/04 06:55:31;;;;;;;24.70;9.97;;;5.10;74.20;;;;;;5035568;28;20060;-85
2022/02/04 06:57:58;;;;;;;28.53;11.37;;;5.00;74.30;;;;;;5033680;28;20033;-85
2022/02/04 07:00:26;;;;;;;27.87;10.80;;;4.90;74.50;;;;;;5035893;28;20032;-85
2022/02/04 07:02:53;;;;;;;24.00;11.77;;;4.90;74.70;;;;;;5033001;28;20091;-85
2022/02/04 07:05:21;;;;;;;49.23;10.50;;;4.90;74.80;;;;;;5037155;28;20056;-85
2022/02/04 07:08:11;;;;;;;15.60;10.53;;;4.90;74.90;;;;;;5034145;28;20029;-85
2022/02/04 07:13:47;;;;;;;30.90;10.73;;;4.90;75.00;;;;;;5025113;28;20488;-85
2022/02/04 07:21:35;;;;;;;26.83;9.97;;;4.80;75.10;;;;;;5034668;28;20056;-85
2022/02/04 07:24:01;;;;;;;19.67;10.30;;;4.90;75.10;;;;;;5018004;28;20108;-85
2022/02/04 07:26:30;;;;;;;14.73;9.97;;;4.90;75.00;;;;;;5024699;28;20022;-85
2022/02/04 07:28:57;;;;;;;14.70;9.70;;;4.90;75.10;;;;;;5030158;28;20033;-85
2022/02/04 07:31:25;;;;;;;17.77;9.33;;;4.90;75.10;;;;;;5017552;28;20052;-85
2022/02/04 07:34:03;;;;;;;24.03;10.23;;;4.90;75.00;;;;;;5020733;28;20057;-85
2022/02/04 07:41:47;;;;;;;17.40;10.40;;;5.00;75.30;;;;;;5026787;28;20033;-85
2022/02/04 07:44:13;;;;;;;22.60;10.53;;;5.00;75.20;;;;;;5022686;28;20064;-85
2022/02/04 07:46:40;;;;;;;26.77;12.33;;;5.00;75.10;;;;;;5016923;28;20055;-85
2022/02/04 07:49:06;;;;;;;25.83;13.43;;;5.00;75.00;;;;;;5031960;28;20104;-85
2022/02/04 07:51:34;;;;;;;22.97;13.03;;;5.00;75.20;;;;;;5034420;28;20032;-86
2022/02/04 07:53:59;;;;;;;23.17;12.73;;;5.00;75.20;;;;;;5031712;28;20069;-85
2022/02/04 07:56:26;;;;;;;23.33;14.20;;;5.00;75.00;;;;;;5031823;28;20087;-85
2022/02/04 07:59:05;;;;;;;24.63;12.80;;;5.10;75.20;;;;;;5022811;28;20029;-85
2022/02/04 08:01:31;;;;;;;21.43;13.50;;;5.00;75.00;;;;;;5031480;28;20034;-85
2022/02/04 08:06:40;;;;;;;23.23;13.27;;;5.00;75.40;;;;;;5028273;28;20142;-85
2022/02/04 08:14:25;;;;;;;23.53;14.13;;;5.20;75.40;;;;;;5033617;28;20018;-85
2022/02/04 08:17:14;;;;;;;22.27;12.67;;;5.20;75.20;;;;;;5021054;28;20108;-85
2022/02/04 08:22:51;;;;;;;18.37;12.40;;;5.20;75.10;;;;;;5030457;28;20017;-85
2022/02/04 08:30:52;;;;;;;23.90;14.77;;;5.10;75.10;;;;;;5023177;28;20061;-85
2022/02/04 08:38:47;;;;;;;19.70;12.87;;;5.20;75.00;;;;;;5027908;28;20061;-85
2022/02/04 08:47:13;;;;;;;16.83;11.87;;;5.50;75.10;;;;;;5022900;28;20040;-85
2022/02/04 08:54:45;;;;;;;11.67;8.37;;;5.70;74.80;;;;;;5028461;28;20568;-85
2022/02/04 09:02:34;;;;;;;18.63;11.53;;;6.10;74.00;;;;;;5031906;28;20128;-85
2022/02/04 09:05:06;;;;;;;16.33;10.50;;;6.10;73.90;;;;;;5024997;28;20461;-85
2022/02/04 09:07:46;;;;;;;21.15;11.18;;;6.20;73.90;;;;;;5029550;28;20030;-86
2022/02/04 09:10:14;;;;;;;17.13;10.37;;;6.30;73.80;;;;;;5026037;28;20033;-86
2022/02/04 09:18:34;;;;;;;18.00;11.17;;;6.20;73.20;;;;;;5028039;28;20035;-86
2022/02/04 09:23:24;;;;;;;18.43;12.40;;;6.00;73.30;;;;;;5027983;28;20025;-86
2022/02/04 09:25:51;;;;;;;17.60;11.13;;;6.00;73.40;;;;;;5029521;28;20053;-85
2022/02/04 09:28:16;;;;;;;17.40;10.47;;;5.90;73.60;;;;;;5031761;28;20035;-86
2022/02/04 09:30:42;;;;;;;15.80;11.27;;;6.00;73.60;;;;;;5026183;28;20467;-86
2022/02/04 09:33:12;;;;;;;16.83;10.63;;;6.00;73.20;;;;;;5028529;28;20167;-86
2022/02/04 09:35:38;;;;;;;17.67;11.07;;;6.00;73.40;;;;;;5027559;28;20033;-85
2022/02/04 09:38:04;;;;;;;18.00;12.30;;;6.00;73.40;;;;;;5028426;28;20132;-85
2022/02/04 09:40:30;;;;;;;19.63;12.97;;;6.00;73.40;;;;;;5024116;28;20105;-86
2022/02/04 09:42:56;;;;;;;24.70;14.83;;;6.10;73.30;;;;;;5027675;28;20035;-86
2022/02/04 09:45:22;;;;;;;26.30;15.83;;;6.10;73.20;;;;;;5025043;28;20395;-86
2022/02/04 09:47:59;;;;;;;27.27;15.83;;;6.20;73.20;;;;;;5027983;28;20049;-86
2022/02/04 09:50:27;;;;;;;23.83;14.83;;;6.10;73.10;;;;;;5026963;28;20028;-85
2022/02/04 10:17:14;;;;;;;17.30;12.10;;;6.20;73.10;;;;;;5030570;28;20029;-86
2022/02/04 10:22:41;;;;;;;15.80;10.33;;;6.20;72.80;;;;;;5030132;28;20024;-86
2022/02/04 10:25:08;;;;;;;14.07;10.37;;;6.20;72.90;;;;;;5029205;28;20052;-86
2022/02/04 10:27:36;;;;;;;14.63;10.97;;;6.30;72.70;;;;;;5006223;28;20030;-86
2022/02/04 10:30:13;;;;;;;16.30;11.57;;;6.30;72.50;;;;;;5038748;28;20131;-86
2022/02/04 10:32:48;;;;;;;20.37;12.83;;;6.30;72.20;;;;;;5027973;28;20034;-86
2022/02/04 10:35:15;;;;;;;16.47;12.93;;;6.30;72.40;;;;;;5028569;28;20030;-85
2022/02/04 10:37:45;;;;;;;18.77;13.37;;;6.30;72.40;;;;;;5029528;28;20025;-85
2022/02/04 10:40:51;;;;;;;17.03;13.27;;;6.40;72.10;;;;;;5029598;28;20035;-86
2022/02/04 10:44:18;;;;;;;23.57;15.13;;;6.40;72.10;;;;;;5027857;28;20093;-86
2022/02/04 10:55:41;;;;;;;19.87;14.47;;;6.20;72.20;;;;;;5026073;28;20025;-85
2022/02/04 11:03:34;;;;;;;20.17;13.90;;;6.20;72.50;;;;;;5034465;28;20376;-85
2022/02/04 11:06:22;;;;;;;21.83;14.63;;;6.20;72.40;;;;;;5035777;28;20087;-86
2022/02/04 11:34:03;;;;;;;22.83;15.43;;;6.30;72.10;;;;;;5034655;28;20045;-85
2022/02/04 11:36:41;;;;;;;20.98;14.88;;;6.30;72.00;;;;;;5033946;28;20056;-86
2022/02/04 11:54:29;;;;;;;21.73;15.63;;;6.30;72.00;;;;;;5030339;28;20029;-85
2022/02/04 11:57:20;;;;;;;25.83;16.20;;;6.30;72.30;;;;;;5029692;28;20034;-87
2022/02/04 11:59:49;;;;;;;23.03;15.80;;;6.20;72.10;;;;;;5025572;28;20042;-86
2022/02/04 12:02:33;;;;;;;21.57;14.97;;;6.10;72.90;;;;;;5030151;28;20033;-86
2022/02/04 12:05:08;;;;;;;24.13;16.43;;;6.20;72.50;;;;;;5025738;28;20040;-86
2022/02/04 12:07:51;;;;;;;23.17;16.03;;;6.20;72.40;;;;;;5032734;28;20034;-86
2022/02/04 12:10:38;;;;;;;21.53;15.33;;;6.30;72.20;;;;;;5032017;28;20102;-86
2022/02/04 12:13:13;;;;;;;21.13;14.83;;;6.20;72.00;;;;;;5017795;28;20036;-86
2022/02/04 12:16:10;;;;;;;23.63;15.17;;;6.10;72.50;;;;;;5031946;28;20029;-87
2022/02/04 12:18:45;;;;;;;22.27;15.27;;;6.30;72.50;;;;;;5029047;28;20052;-87
2022/02/04 12:21:17;;;;;;;20.57;15.17;;;6.20;72.30;;;;;;5032368;28;20030;-87
2022/02/04 12:23:54;;;;;;;24.55;15.68;;;6.30;72.30;;;;;;5031321;28;20080;-87
2022/02/04 12:26:36;;;;;;;22.13;15.30;;;6.40;72.40;;;;;;5031274;28;20049;-85
2022/02/04 12:29:07;;;;;;;21.10;14.88;;;6.40;72.00;;;;;;5030611;28;20030;-86
2022/02/04 12:31:36;;;;;;;20.43;14.60;;;6.40;72.10;;;;;;5036797;28;20597;-86
2022/02/04 12:34:10;;;;;;;21.67;14.87;;;6.40;72.20;;;;;;5030905;28;20030;-87
2022/02/04 12:36:43;;;;;;;23.50;15.17;;;6.40;72.20;;;;;;5032069;28;20481;-86
2022/02/04 12:39:14;;;;;;;19.87;13.93;;;6.30;72.20;;;;;;5033749;28;20033;-87
2022/02/04 12:41:52;;;;;;;18.43;13.63;;;6.40;72.20;;;;;;5033873;28;20088;-86
2022/02/04 12:44:24;;;;;;;18.97;13.70;;;6.60;72.30;;;;;;5031568;28;20038;-85
2022/02/04 12:46:53;;;;;;;19.35;13.60;;;6.80;72.10;;;;;;5033135;28;20116;-86
2022/02/04 12:49:21;;;;;;;23.57;14.90;;;6.90;71.70;;;;;;5032764;28;20056;-86
2022/02/04 12:54:38;;;;;;;19.97;14.10;;;7.20;71.40;;;;;;5033825;28;20544;-86
2022/02/04 13:10:34;;;;;;;19.13;14.33;;;7.30;70.70;;;;;;5031099;28;20021;-86
2022/02/04 13:13:06;;;;;;;19.80;14.33;;;7.20;70.50;;;;;;5031526;28;20025;-86
2022/02/04 13:15:36;;;;;;;18.23;13.40;;;7.30;70.40;;;;;;5033553;28;20388;-86
2022/02/04 13:18:20;;;;;;;20.03;14.70;;;7.50;70.50;;;;;;5032447;28;20025;-86
2022/02/04 13:20:54;;;;;;;19.90;13.20;;;7.60;70.00;;;;;;5029232;28;20485;-87
2022/02/04 13:23:24;;;;;;;19.00;13.93;;;7.70;69.80;;;;;;5023383;28;20029;-87
2022/02/04 13:25:53;;;;;;;18.60;14.27;;;7.60;69.40;;;;;;5032188;28;20393;-86
2022/02/04 13:28:27;;;;;;;19.27;14.70;;;7.60;69.50;;;;;;5029432;28;20029;-87
2022/02/04 13:31:00;;;;;;;18.77;13.93;;;7.60;69.50;;;;;;5024977;28;20029;-87
2022/02/04 13:33:46;;;;;;;17.20;13.73;;;7.70;69.30;;;;;;5038100;28;20108;-86
2022/02/04 13:36:28;;;;;;;16.43;12.13;;;7.80;69.40;;;;;;5018567;28;20041;-86
2022/02/04 13:39:22;;;;;;;17.87;13.57;;;7.90;68.90;;;;;;5029797;28;20113;-87
2022/02/04 13:47:23;;;;;;;20.67;16.17;;;7.80;68.60;;;;;;5028964;28;20050;-86
2022/02/04 13:56:10;;;;;;;21.63;16.20;;;8.10;68.40;;;;;;5033385;28;20028;-87
2022/02/04 14:03:42;;;;;;;21.97;16.30;;;8.10;68.20;;;;;;5032009;28;20380;-86
2022/02/04 14:06:14;;;;;;;24.67;15.37;;;8.10;68.10;;;;;;5031459;28;20052;-86
2022/02/04 14:08:57;;;;;;;19.90;15.37;;;8.20;68.00;;;;;;5026330;28;20462;-86
2022/02/04 14:11:36;;;;;;;21.60;17.03;;;8.20;67.90;;;;;;5020967;28;20032;-86
2022/02/04 14:14:08;;;;;;;19.50;14.23;;;8.20;67.60;;;;;;5020459;28;20021;-87
2022/02/04 14:16:35;;;;;;;21.08;15.13;;;8.20;67.80;;;;;;5031192;28;20504;-86
2022/02/04 14:19:02;;;;;;;19.63;15.43;;;8.30;67.80;;;;;;5031234;28;20057;-86
2022/02/04 14:21:27;;;;;;;21.03;16.27;;;8.30;67.60;;;;;;5031191;28;20086;-86
2022/02/04 14:23:56;;;;;;;22.10;16.63;;;8.40;67.30;;;;;;5035648;28;20109;-86
2022/02/04 14:26:36;;;;;;;23.10;17.90;;;8.30;67.10;;;;;;5035445;28;20130;-86
2022/02/04 14:29:15;;;;;;;22.40;17.23;;;8.20;67.20;;;;;;5015737;28;20900;-86
2022/02/04 14:37:33;;;;;;;21.53;17.13;;;7.90;67.50;;;;;;5034609;28;20068;-86
2022/02/04 14:51:24;;;;;;;24.27;18.10;;;7.60;68.20;;;;;;5031851;28;20083;-86
2022/02/04 14:53:49;;;;;;;23.30;17.43;;;7.60;68.20;;;;;;5029958;28;20024;-85
2022/02/04 14:59:31;;;;;;;24.53;17.70;;;7.70;68.30;;;;;;5036283;28;20103;-86
2022/02/04 15:01:54;;;;;;;24.03;16.90;;;7.60;68.30;;;;;;5016356;28;20506;-86
2022/02/04 15:04:36;;;;;;;21.15;14.93;;;7.70;68.40;;;;;;5024708;28;20025;-86
2022/02/04 15:07:03;;;;;;;19.40;14.82;;;7.70;68.10;;;;;;5034508;28;20036;-85
2022/02/04 15:09:30;;;;;;;20.97;14.93;;;7.80;68.10;;;;;;5024018;28;20034;-86
2022/02/04 15:11:56;;;;;;;19.77;14.57;;;7.80;67.90;;;;;;5028961;28;20028;-86
2022/02/04 15:14:22;;;;;;;23.07;18.27;;;7.80;67.80;;;;;;5034222;28;20025;-86
2022/02/04 15:16:48;;;;;;;20.97;16.33;;;7.80;67.70;;;;;;5017438;28;20026;-86
2022/02/04 15:19:14;;;;;;;26.40;19.47;;;7.80;67.60;;;;;;5033819;28;20021;-86
2022/02/04 15:21:43;;;;;;;20.80;15.40;;;7.80;67.50;;;;;;5034428;28;20030;-85
2022/02/04 15:24:10;;;;;;;19.90;14.80;;;7.90;67.50;;;;;;5033413;28;20082;-86
2022/02/04 15:26:39;;;;;;;23.13;14.43;;;7.90;67.40;;;;;;5034313;28;20441;-86
2022/02/04 15:29:31;;;;;;;22.10;16.17;;;7.90;67.50;;;;;;5034308;28;20026;-85
2022/02/04 15:32:01;;;;;;;21.53;15.30;;;7.80;67.50;;;;;;5034859;28;20021;-85
2022/02/04 15:34:35;;;;;;;20.80;16.60;;;7.80;67.60;;;;;;5033332;28;20468;-86
2022/02/04 15:37:11;;;;;;;20.80;15.93;;;7.80;67.70;;;;;;5026755;28;20041;-85
2022/02/04 15:39:39;;;;;;;26.10;16.90;;;7.70;67.60;;;;;;5014271;28;20429;-85
2022/02/04 15:42:18;;;;;;;24.07;17.50;;;7.80;67.80;;;;;;5014336;28;20431;-85
2022/02/04 15:48:10;;;;;;;25.53;17.20;;;7.80;67.90;;;;;;5035447;28;20088;-85
2022/02/04 15:53:23;;;;;;;27.03;19.50;;;7.60;67.90;;;;;;5034886;28;20021;-86
2022/02/04 16:04:16;;;;;;;27.47;18.53;;;7.50;68.40;;;;;;5035389;28;20041;-85
2022/02/04 16:06:46;;;;;;;37.40;24.07;;;7.50;68.40;;;;;;5033771;28;20476;-85
2022/02/04 16:09:15;;;;;;;27.20;18.93;;;7.50;68.70;;;;;;5035057;28;20041;-85
2022/02/04 16:12:01;;;;;;;29.10;18.20;;;7.50;68.90;;;;;;5034374;28;20427;-85
2022/02/04 16:15:04;;;;;;;22.97;15.93;;;7.40;69.40;;;;;;5033681;28;20022;-85
2022/02/04 16:17:40;;;;;;;23.17;17.20;;;7.50;69.00;;;;;;5033809;28;20053;-85
2022/02/04 16:20:28;;;;;;;25.40;15.60;;;7.40;69.10;;;;;;5035206;28;20014;-85
2022/02/04 16:23:25;;;;;;;17.33;11.97;;;7.30;69.20;;;;;;5034125;28;20026;-86
2022/02/04 16:28:39;;;;;;;15.63;10.40;;;7.10;69.60;;;;;;5022511;28;20025;-85
2022/02/04 16:31:39;;;;;;;28.00;13.13;;;7.20;69.60;;;;;;5043700;28;20042;-86
2022/02/04 16:34:13;;;;;;;35.53;14.63;;;7.10;69.50;;;;;;5030437;28;20061;-85
2022/02/04 16:37:03;;;;;;;;;;;;;;;;;;;;;
2022/02/04 16:39:36;;;;;;;27.50;14.30;;;6.90;69.60;;;;;;5027191;28;20032;-85
2022/02/04 16:45:37;;;;;;;21.07;13.57;;;6.90;69.80;;;;;;5033268;28;20048;-85
2022/02/04 16:48:20;;;;;;;18.00;12.23;;;6.80;69.60;;;;;;5033864;28;20409;-85
2022/02/04 16:51:21;;;;;;;17.67;12.55;;;6.70;70.30;;;;;;5041647;28;20518;-85
2022/02/04 16:54:04;;;;;;;26.03;17.97;;;6.70;69.80;;;;;;5015226;28;20030;-85
2022/02/04 16:57:09;;;;;;;24.90;17.93;;;6.70;69.90;;;;;;5032069;28;20030;-85
2022/02/04 16:59:50;;;;;;;;;;;;;;;;;;;;;
2022/02/04 17:02:55;;;;;;;29.67;20.03;;;6.60;70.30;;;;;;5033068;28;20031;-85
2022/02/04 17:12:07;;;;;;;29.77;20.10;;;6.40;70.10;;;;;;5035822;28;20040;-85
2022/02/04 17:14:42;;;;;;;36.13;21.97;;;6.30;70.30;;;;;;5032689;28;20447;-85
2022/02/04 17:17:24;;;;;;;34.70;19.70;;;6.30;70.10;;;;;;5033395;28;20072;-85
2022/02/04 17:20:14;;;;;;;30.38;17.85;;;6.10;70.10;;;;;;5039475;28;20026;-85
2022/02/04 17:23:09;;;;;;;27.33;16.10;;;6.00;70.30;;;;;;5035064;28;20044;-86
2022/02/04 17:25:57;;;;;;;23.53;14.13;;;6.00;70.40;;;;;;5041426;28;20021;-86
2022/02/04 17:29:04;;;;;;;23.13;14.93;;;6.10;70.90;;;;;;5041119;28;20052;-85
2022/02/04 17:31:42;;;;;;;22.13;13.20;;;6.10;70.30;;;;;;5013101;28;20461;-86
2022/02/04 17:34:19;;;;;;;20.77;13.60;;;6.00;70.00;;;;;;5023538;28;20036;-85
2022/02/04 17:37:12;;;;;;;16.07;11.87;;;5.90;70.20;;;;;;5031722;28;20018;-85
2022/02/04 17:39:56;;;;;;;;;;;;;;;;;;;;;
2022/02/04 17:42:41;;;;;;;18.67;12.80;;;5.80;70.20;;;;;;5030184;28;20038;-85
2022/02/04 17:45:27;;;;;;;29.20;14.33;;;5.80;70.40;;;;;;5012954;28;20061;-85
2022/02/04 17:48:19;;;;;;;24.53;15.47;;;5.80;70.40;;;;;;5027022;28;20731;-85
2022/02/04 17:54:31;;;;;;;16.87;10.83;;;5.70;70.00;;;;;;5007656;28;20033;-85
2022/02/04 17:57:54;;;;;;;19.20;11.13;;;5.70;70.10;;;;;;5020963;28;20037;-85
2022/02/04 18:00:55;;;;;;;13.83;8.03;;;5.60;70.10;;;;;;5031237;28;20123;-86
2022/02/04 18:05:04;;;;;;;27.77;19.10;;;5.50;70.10;;;;;;5013483;28;20030;-85
2022/02/04 18:09:33;;;;;;;38.20;23.43;;;5.40;70.50;;;;;;5017373;28;20046;-85
2022/02/04 18:18:01;;;;;;;36.67;19.57;;;5.40;70.30;;;;;;5017072;28;20070;-84
2022/02/04 18:20:42;;;;;;;;;;;;;;;;;;;;;
2022/02/04 18:23:21;;;;;;;21.67;13.03;;;5.40;70.30;;;;;;5030222;28;20026;-84
2022/02/04 18:26:07;;;;;;;16.60;12.40;;;5.50;70.30;;;;;;5025577;28;20030;-84
2022/02/04 18:28:50;;;;;;;20.03;12.10;;;5.40;70.20;;;;;;5015173;28;20096;-84
2022/02/04 18:31:16;;;;;;;17.15;11.48;;;5.40;70.20;;;;;;5028624;28;20117;-84
2022/02/04 18:33:41;;;;;;;19.07;12.17;;;5.30;70.30;;;;;;5025351;28;20484;-85
2022/02/04 18:36:07;;;;;;;17.57;11.30;;;5.30;70.30;;;;;;5030888;28;20017;-85
2022/02/04 18:38:46;;;;;;;18.97;11.80;;;5.30;70.30;;;;;;5032202;28;20083;-85
2022/02/04 18:44:09;;;;;;;18.90;11.40;;;5.30;70.30;;;;;;5032150;28;20053;-84
2022/02/04 18:57:24;;;;;;;11.80;8.40;;;5.10;70.30;;;;;;5047652;28;20404;-84
2022/02/04 18:59:57;;;;;;;11.93;7.67;;;5.10;70.00;;;;;;5026434;28;20021;-84
2022/02/04 19:02:25;;;;;;;12.43;8.50;;;5.10;70.20;;;;;;5031277;28;20437;-85
2022/02/04 19:05:03;;;;;;;13.53;9.90;;;5.10;70.20;;;;;;5026748;28;20022;-85
2022/02/04 19:07:41;;;;;;;16.63;10.87;;;5.10;70.10;;;;;;5023640;28;20033;-85
2022/02/04 19:10:07;;;;;;;15.33;10.07;;;5.00;70.00;;;;;;5032562;28;20056;-84
2022/02/04 19:12:42;;;;;;;13.27;9.67;;;5.00;70.00;;;;;;5034699;28;20481;-84
2022/02/04 19:18:13;;;;;;;15.10;9.10;;;4.80;70.40;;;;;;5045657;28;20036;-84
2022/02/04 19:20:43;;;;;;;22.07;11.87;;;4.80;70.60;;;;;;5035698;28;20033;-84
2022/02/04 19:23:17;;;;;;;21.20;11.57;;;4.80;70.60;;;;;;5026306;28;20037;-84
2022/02/04 19:25:43;;;;;;;22.20;14.07;;;4.80;70.80;;;;;;5034339;28;20033;-85
2022/02/04 19:28:10;;;;;;;28.27;16.10;;;4.80;70.70;;;;;;5034130;28;20515;-84
2022/02/04 19:30:46;;;;;;;18.27;11.97;;;4.80;70.60;;;;;;5027300;28;20442;-85
2022/02/04 19:33:12;;;;;;;19.63;13.63;;;4.80;70.60;;;;;;5034191;28;20467;-84
2022/02/04 19:35:38;;;;;;;19.53;12.77;;;4.80;70.40;;;;;;5033886;28;20155;-84
2022/02/04 19:38:05;;;;;;;22.90;15.23;;;4.70;70.50;;;;;;5035115;28;20089;-84
2022/02/04 19:40:32;;;;;;;30.27;19.10;;;4.60;70.60;;;;;;5033766;28;20112;-84
2022/02/04 19:42:58;;;;;;;24.30;14.37;;;4.60;70.90;;;;;;5033708;28;20029;-84
2022/02/04 19:45:30;;;;;;;24.60;16.20;;;4.60;71.00;;;;;;5034354;28;20041;-84
2022/02/04 19:48:06;;;;;;;25.60;14.85;;;4.50;71.10;;;;;;5034060;28;20049;-84
2022/02/04 20:06:55;;;;;;;27.10;15.53;;;4.60;71.00;;;;;;5023176;28;20036;-84
2022/02/04 20:07:11;;;;;;;25.67;15.13;;;4.40;71.40;;;;;;5027294;28;20028;-84
2022/02/04 20:25:55;;;;;;;27.70;17.73;;;4.50;71.60;;;;;;5033965;28;20026;-84
2022/02/04 20:28:21;;;;;;;30.40;17.53;;;4.50;71.60;;;;;;5030941;28;20075;-84
2022/02/04 20:30:48;;;;;;;27.03;14.73;;;4.50;71.60;;;;;;5030617;28;20025;-84
2022/02/04 20:33:15;;;;;;;21.37;13.20;;;4.60;71.80;;;;;;5031686;28;20018;-84
2022/02/04 20:35:44;;;;;;;18.10;12.77;;;4.60;72.00;;;;;;5029258;28;20056;-83
2022/02/04 20:38:15;;;;;;;15.27;9.70;;;4.60;72.00;;;;;;5026670;28;20032;-84
2022/02/04 20:40:43;;;;;;;18.27;10.70;;;4.60;72.00;;;;;;5033312;28;20528;-84
2022/02/04 20:43:14;;;;;;;16.83;10.07;;;4.60;72.00;;;;;;5033568;28;20075;-84
2022/02/04 20:45:40;;;;;;;12.87;6.87;;;4.60;72.00;;;;;;5033429;28;20029;-84
2022/02/04 20:48:06;;;;;;;12.23;7.87;;;4.50;71.90;;;;;;5032434;28;20050;-83